This is the latest recevied weather packets stored in our database for station/object KQ4UWH. If no packets are shown the sender has not sent any weather packets the latest 1 day(s).
| Time | Temp. | Humidity | Pressure | Rain* | Wind** | Luminosity | Snow |
|---|---|---|---|---|---|---|---|
| 1778088628 | 27.22° C | 62% | 1239.7 hPa | 0 mm | - | 498 W/m² | - |
| 1778088326 | 26.67° C | 64% | 1239.7 hPa | 0 mm | - | 905 W/m² | - |
| 1778087719 | 26.67° C | 64% | 1239.7 hPa | 0 mm | - | 247 W/m² | - |
| 1778086812 | 26.67° C | 64% | 1239.7 hPa | 0 mm | - | 276 W/m² | - |
| 1778084990 | 25° C | 69% | 1239.7 hPa | 0 mm | - | 320 W/m² | - |
| 1778083478 | 25° C | 68% | 1239.7 hPa | 0 mm | - | 544 W/m² | - |
| 1778083175 | 24.44° C | 70% | 1239.7 hPa | 0 mm | - | 316 W/m² | - |
| 1778082873 | 24.44° C | 71% | 1239.7 hPa | 0 mm | - | 483 W/m² | - |
| 1778079331 | 22.22° C | 78% | 1239.7 hPa | 0 mm | - | 211 W/m² | - |
| 1778078720 | 21.11° C | 80% | 1239.7 hPa | 0 mm | - | 204 W/m² | - |
| 1778078115 | 21.11° C | 80% | 1239.7 hPa | 0 mm | - | 134 W/m² | - |
| 1778075998 | 20.56° C | 82% | 1239.7 hPa | 0 mm | - | 167 W/m² | - |
| 1778075087 | 20° C | 85% | 1239.7 hPa | 0 mm | - | 135 W/m² | - |
| 1778074784 | 20° C | 86% | 1239.7 hPa | 0 mm | - | 138 W/m² | - |
| 1778074178 | 19.44° C | 86% | 1239.7 hPa | 0 mm | - | 106 W/m² | - |
| 1778073269 | 19.44° C | 88% | 1239.7 hPa | 0 mm | - | 88 W/m² | - |
| 1778072966 | 19.44° C | 88% | 1239.7 hPa | 0 mm | - | 88 W/m² | - |
| 1778072662 | 19.44° C | 88% | 1239.7 hPa | 0 mm | - | 83 W/m² | - |
| 1778070849 | 18.33° C | 89% | 1239.7 hPa | 0 mm | - | 60 W/m² | - |
| 1778070243 | 18.33° C | 89% | 1239.7 hPa | 0 mm | - | 39 W/m² | - |
| 1778069638 | 18.33° C | 89% | 1239.7 hPa | 0 mm | - | 43 W/m² | - |
| 1778069335 | 18.33° C | 89% | 1239.7 hPa | 0 mm | - | 41 W/m² | - |
| 1778068730 | 18.89° C | 88% | 1239.7 hPa | 0 mm | - | 28 W/m² | - |
| 1778068428 | 18.89° C | 88% | 1239.7 hPa | 0 mm | - | 30 W/m² | - |
| 1778067823 | 18.33° C | 89% | 1239.7 hPa | 0 mm | - | 48 W/m² | - |
* Rain latest hour (hover to see other rain measurements)
** Current wind speed in m/s (hover to see current wind gust speed)